sensor_id;sensor_type;location;lat;lon;timestamp;pressure;altitude;pressure_sealevel;temperature;humidity
30598;BME280;17365;48.878;8.334;2022-12-18T00:01:22;101314.13;;;-5.35;94.43
30598;BME280;17365;48.878;8.334;2022-12-18T00:03:48;101313.19;;;-5.06;93.85
30598;BME280;17365;48.878;8.334;2022-12-18T00:06:14;101323.88;;;-5.39;95.35
30598;BME280;17365;48.878;8.334;2022-12-18T00:08:41;101330.00;;;-5.07;93.88
30598;BME280;17365;48.878;8.334;2022-12-18T00:11:08;101327.31;;;-5.29;94.32
30598;BME280;17365;48.878;8.334;2022-12-18T00:13:34;101335.88;;;-5.47;94.22
30598;BME280;17365;48.878;8.334;2022-12-18T00:16:04;101330.63;;;-5.09;94.26
30598;BME280;17365;48.878;8.334;2022-12-18T00:18:30;101331.25;;;-4.81;93.20
30598;BME280;17365;48.878;8.334;2022-12-18T00:20:59;101326.31;;;-5.10;92.31
30598;BME280;17365;48.878;8.334;2022-12-18T00:23:25;101319.13;;;-4.75;92.04
30598;BME280;17365;48.878;8.334;2022-12-18T00:25:51;101324.78;;;-5.88;94.31
30598;BME280;17365;48.878;8.334;2022-12-18T00:28:16;101332.97;;;-5.80;96.79
30598;BME280;17365;48.878;8.334;2022-12-18T00:30:41;101337.41;;;-5.78;95.82
30598;BME280;17365;48.878;8.334;2022-12-18T00:33:07;101338.97;;;-5.20;95.20
30598;BME280;17365;48.878;8.334;2022-12-18T00:35:32;101341.97;;;-6.13;97.03
30598;BME280;17365;48.878;8.334;2022-12-18T00:37:57;101339.94;;;-5.39;96.54
30598;BME280;17365;48.878;8.334;2022-12-18T00:40:22;101343.84;;;-6.21;96.96
30598;BME280;17365;48.878;8.334;2022-12-18T00:42:48;101335.03;;;-5.76;97.69
30598;BME280;17365;48.878;8.334;2022-12-18T00:45:28;101331.88;;;-6.13;97.81
30598;BME280;17365;48.878;8.334;2022-12-18T00:47:54;101323.34;;;-5.45;96.35
30598;BME280;17365;48.878;8.334;2022-12-18T00:50:20;101327.53;;;-5.46;95.70
30598;BME280;17365;48.878;8.334;2022-12-18T00:52:45;101328.38;;;-5.56;94.37
30598;BME280;17365;48.878;8.334;2022-12-18T00:55:11;101321.63;;;-5.86;94.99
30598;BME280;17365;48.878;8.334;2022-12-18T00:57:37;101332.50;;;-5.76;94.08
30598;BME280;17365;48.878;8.334;2022-12-18T01:00:04;101344.28;;;-5.67;94.21
30598;BME280;17365;48.878;8.334;2022-12-18T01:02:30;101324.53;;;-5.32;93.05
30598;BME280;17365;48.878;8.334;2022-12-18T01:04:55;101329.28;;;-5.65;92.89
30598;BME280;17365;48.878;8.334;2022-12-18T01:07:20;101322.91;;;-5.70;91.82
30598;BME280;17365;48.878;8.334;2022-12-18T01:09:46;101325.03;;;-5.36;91.12
30598;BME280;17365;48.878;8.334;2022-12-18T01:12:11;101330.41;;;-6.01;90.93
30598;BME280;17365;48.878;8.334;2022-12-18T01:14:37;101319.84;;;-5.37;90.30
30598;BME280;17365;48.878;8.334;2022-12-18T01:17:03;101326.31;;;-5.10;90.14
30598;BME280;17365;48.878;8.334;2022-12-18T01:19:29;101328.59;;;-5.13;89.42
30598;BME280;17365;48.878;8.334;2022-12-18T01:21:54;101331.00;;;-5.74;89.73
30598;BME280;17365;48.878;8.334;2022-12-18T01:24:19;101326.84;;;-5.74;91.04
30598;BME280;17365;48.878;8.334;2022-12-18T01:26:45;101320.75;;;-6.15;91.97
30598;BME280;17365;48.878;8.334;2022-12-18T01:29:10;101314.28;;;-5.43;91.08
30598;BME280;17365;48.878;8.334;2022-12-18T01:31:35;101316.03;;;-5.52;90.60
30598;BME280;17365;48.878;8.334;2022-12-18T01:34:02;101317.41;;;-5.46;90.62
30598;BME280;17365;48.878;8.334;2022-12-18T01:36:29;101320.34;;;-5.41;90.84
30598;BME280;17365;48.878;8.334;2022-12-18T01:38:56;101337.41;;;-5.88;90.96
30598;BME280;17365;48.878;8.334;2022-12-18T01:41:26;101333.63;;;-5.23;89.94
30598;BME280;17365;48.878;8.334;2022-12-18T01:47:47;101346.06;;;-5.66;91.16
30598;BME280;17365;48.878;8.334;2022-12-18T01:50:16;101353.38;;;-5.69;92.11
30598;BME280;17365;48.878;8.334;2022-12-18T01:52:44;101351.78;;;-5.48;91.86
30598;BME280;17365;48.878;8.334;2022-12-18T01:55:13;101341.03;;;-5.45;91.40
30598;BME280;17365;48.878;8.334;2022-12-18T01:57:41;101330.72;;;-5.88;91.29
30598;BME280;17365;48.878;8.334;2022-12-18T02:00:12;101331.88;;;-6.13;92.77
30598;BME280;17365;48.878;8.334;2022-12-18T02:02:39;101328.94;;;-5.99;91.97
30598;BME280;17365;48.878;8.334;2022-12-18T02:05:06;101336.31;;;-5.71;91.90
30598;BME280;17365;48.878;8.334;2022-12-18T02:07:58;101341.31;;;-5.52;89.83
30598;BME280;17365;48.878;8.334;2022-12-18T02:16:13;101357.50;;;-5.79;89.23
30598;BME280;17365;48.878;8.334;2022-12-18T02:18:47;101353.09;;;-5.33;89.02
30598;BME280;17365;48.878;8.334;2022-12-18T02:27:11;101361.44;;;-5.23;88.89
30598;BME280;17365;48.878;8.334;2022-12-18T02:29:54;101338.72;;;-5.03;87.78
30598;BME280;17365;48.878;8.334;2022-12-18T02:32:31;101348.94;;;-5.32;88.57
30598;BME280;17365;48.878;8.334;2022-12-18T02:34:59;101358.63;;;-5.47;90.38
30598;BME280;17365;48.878;8.334;2022-12-18T02:37:27;101351.47;;;-5.32;89.98
30598;BME280;17365;48.878;8.334;2022-12-18T02:39:56;101353.53;;;-5.57;90.67
30598;BME280;17365;48.878;8.334;2022-12-18T02:42:22;101348.84;;;-5.63;90.51
30598;BME280;17365;48.878;8.334;2022-12-18T02:44:50;101337.59;;;-5.56;91.88
30598;BME280;17365;48.878;8.334;2022-12-18T02:47:18;101336.91;;;-5.35;91.03
30598;BME280;17365;48.878;8.334;2022-12-18T02:50:18;101347.88;;;-6.23;92.90
30598;BME280;17365;48.878;8.334;2022-12-18T02:53:17;101356.94;;;-6.25;92.48
30598;BME280;17365;48.878;8.334;2022-12-18T02:56:48;101349.34;;;-6.25;94.85
30598;BME280;17365;48.878;8.334;2022-12-18T02:59:01;101360.72;;;-6.67;96.51
30598;BME280;17365;48.878;8.334;2022-12-18T03:01:49;101364.88;;;-6.11;96.51
30598;BME280;17365;48.878;8.334;2022-12-18T03:04:25;101372.06;;;-6.06;95.12
30598;BME280;17365;48.878;8.334;2022-12-18T03:06:55;101364.44;;;-5.87;93.78
30598;BME280;17365;48.878;8.334;2022-12-18T03:09:30;101361.59;;;-5.71;92.16
30598;BME280;17365;48.878;8.334;2022-12-18T03:12:06;101366.88;;;-5.68;92.54
30598;BME280;17365;48.878;8.334;2022-12-18T03:15:00;101365.97;;;-5.79;93.09
30598;BME280;17365;48.878;8.334;2022-12-18T03:17:31;101362.34;;;-5.72;92.35
30598;BME280;17365;48.878;8.334;2022-12-18T03:20:02;101361.88;;;-5.58;92.42
30598;BME280;17365;48.878;8.334;2022-12-18T03:22:30;101358.63;;;-5.47;92.13
30598;BME280;17365;48.878;8.334;2022-12-18T03:24:58;101357.53;;;-5.69;91.71
30598;BME280;17365;48.878;8.334;2022-12-18T03:27:27;101358.88;;;-5.44;91.04
30598;BME280;17365;48.878;8.334;2022-12-18T03:30:02;101364.06;;;-5.92;89.32
30598;BME280;17365;48.878;8.334;2022-12-18T03:32:40;101371.50;;;-5.93;89.94
30598;BME280;17365;48.878;8.334;2022-12-18T03:35:08;101364.25;;;-6.09;92.37
30598;BME280;17365;48.878;8.334;2022-12-18T03:37:36;101365.22;;;-6.55;95.78
30598;BME280;17365;48.878;8.334;2022-12-18T03:40:02;101375.84;;;-6.67;97.11
30598;BME280;17365;48.878;8.334;2022-12-18T03:42:50;101370.00;;;-5.81;94.07
30598;BME280;17365;48.878;8.334;2022-12-18T03:45:27;101368.16;;;-6.31;95.70
30598;BME280;17365;48.878;8.334;2022-12-18T03:48:03;101357.59;;;-5.98;94.61
30598;BME280;17365;48.878;8.334;2022-12-18T03:53:58;101348.63;;;-5.95;93.64
30598;BME280;17365;48.878;8.334;2022-12-18T03:56:28;101348.72;;;-5.64;94.07
30598;BME280;17365;48.878;8.334;2022-12-18T03:58:55;101340.84;;;-5.77;92.94
30598;BME280;17365;48.878;8.334;2022-12-18T04:01:28;101333.97;;;-5.49;91.42
30598;BME280;17365;48.878;8.334;2022-12-18T04:03:58;101320.97;;;-5.83;92.71
30598;BME280;17365;48.878;8.334;2022-12-18T04:06:25;101335.31;;;-6.69;95.61
30598;BME280;17365;48.878;8.334;2022-12-18T04:08:51;101339.81;;;-6.19;96.73
30598;BME280;17365;48.878;8.334;2022-12-18T04:11:17;101334.66;;;-5.71;95.02
30598;BME280;17365;48.878;8.334;2022-12-18T04:13:42;101354.56;;;-5.94;93.78
30598;BME280;17365;48.878;8.334;2022-12-18T04:16:09;101349.66;;;-5.82;92.59
30598;BME280;17365;48.878;8.334;2022-12-18T04:18:34;101340.69;;;-5.40;91.24
30598;BME280;17365;48.878;8.334;2022-12-18T04:21:00;101344.81;;;-5.61;88.89
30598;BME280;17365;48.878;8.334;2022-12-18T04:23:26;101342.09;;;-5.43;89.38
30598;BME280;17365;48.878;8.334;2022-12-18T04:25:51;101334.63;;;-5.42;88.74
30598;BME280;17365;48.878;8.334;2022-12-18T04:28:17;101333.13;;;-5.30;88.33
30598;BME280;17365;48.878;8.334;2022-12-18T04:30:42;101331.75;;;-5.06;87.22
30598;BME280;17365;48.878;8.334;2022-12-18T04:33:09;101324.28;;;-5.24;88.00
30598;BME280;17365;48.878;8.334;2022-12-18T04:35:35;101322.75;;;-5.12;88.61
30598;BME280;17365;48.878;8.334;2022-12-18T04:38:00;101330.47;;;-5.11;88.38
30598;BME280;17365;48.878;8.334;2022-12-18T04:40:25;101337.72;;;-4.85;87.42
30598;BME280;17365;48.878;8.334;2022-12-18T04:42:51;101338.06;;;-5.11;88.19
30598;BME280;17365;48.878;8.334;2022-12-18T04:45:16;101346.56;;;-5.00;89.02
30598;BME280;17365;48.878;8.334;2022-12-18T04:47:41;101344.41;;;-4.95;88.77
30598;BME280;17365;48.878;8.334;2022-12-18T04:50:07;101342.63;;;-5.17;89.33
30598;BME280;17365;48.878;8.334;2022-12-18T04:52:32;101345.28;;;-5.15;89.30
30598;BME280;17365;48.878;8.334;2022-12-18T04:54:58;101348.84;;;-4.93;89.45
30598;BME280;17365;48.878;8.334;2022-12-18T04:57:23;101337.97;;;-4.72;88.66
30598;BME280;17365;48.878;8.334;2022-12-18T04:59:48;101339.97;;;-4.88;87.74
30598;BME280;17365;48.878;8.334;2022-12-18T05:02:13;101341.50;;;-5.20;87.52
30598;BME280;17365;48.878;8.334;2022-12-18T05:04:39;101349.47;;;-5.06;87.93
30598;BME280;17365;48.878;8.334;2022-12-18T05:07:04;101355.03;;;-4.69;86.52
30598;BME280;17365;48.878;8.334;2022-12-18T05:09:29;101357.22;;;-4.74;86.35
30598;BME280;17365;48.878;8.334;2022-12-18T05:11:55;101375.81;;;-5.53;89.56
30598;BME280;17365;48.878;8.334;2022-12-18T05:14:20;101371.22;;;-5.18;89.67
30598;BME280;17365;48.878;8.334;2022-12-18T05:16:45;101369.19;;;-5.12;88.75
30598;BME280;17365;48.878;8.334;2022-12-18T05:19:11;101381.06;;;-5.11;89.14
30598;BME280;17365;48.878;8.334;2022-12-18T05:21:36;101362.09;;;-5.26;88.05
30598;BME280;17365;48.878;8.334;2022-12-18T05:24:01;101367.31;;;-5.64;90.73
30598;BME280;17365;48.878;8.334;2022-12-18T05:26:27;101363.94;;;-5.54;90.85
30598;BME280;17365;48.878;8.334;2022-12-18T05:28:52;101367.50;;;-5.42;90.62
30598;BME280;17365;48.878;8.334;2022-12-18T05:31:17;101352.13;;;-4.94;89.26
30598;BME280;17365;48.878;8.334;2022-12-18T05:33:42;101355.44;;;-4.95;88.66
30598;BME280;17365;48.878;8.334;2022-12-18T05:36:09;101358.84;;;-5.64;89.52
30598;BME280;17365;48.878;8.334;2022-12-18T05:38:36;101364.25;;;-5.20;90.14
30598;BME280;17365;48.878;8.334;2022-12-18T05:41:03;101361.72;;;-5.20;89.41
30598;BME280;17365;48.878;8.334;2022-12-18T05:43:29;101351.81;;;-5.38;89.26
30598;BME280;17365;48.878;8.334;2022-12-18T05:45:54;101354.84;;;-5.42;88.38
30598;BME280;17365;48.878;8.334;2022-12-18T05:48:22;101355.59;;;-5.33;90.40
30598;BME280;17365;48.878;8.334;2022-12-18T05:50:49;101361.13;;;-5.08;88.81
30598;BME280;17365;48.878;8.334;2022-12-18T05:53:17;101354.44;;;-4.87;88.46
30598;BME280;17365;48.878;8.334;2022-12-18T05:55:43;101361.88;;;-4.88;87.94
30598;BME280;17365;48.878;8.334;2022-12-18T05:58:10;101369.44;;;-4.88;88.43
30598;BME280;17365;48.878;8.334;2022-12-18T06:00:39;101368.50;;;-5.40;89.86
30598;BME280;17365;48.878;8.334;2022-12-18T06:03:05;101377.63;;;-5.21;89.81
30598;BME280;17365;48.878;8.334;2022-12-18T06:05:35;101377.00;;;-5.29;88.88
30598;BME280;17365;48.878;8.334;2022-12-18T06:08:01;101375.09;;;-5.42;89.73
30598;BME280;17365;48.878;8.334;2022-12-18T06:10:26;101374.91;;;-4.84;88.61
30598;BME280;17365;48.878;8.334;2022-12-18T06:12:52;101381.88;;;-4.81;87.70
30598;BME280;17365;48.878;8.334;2022-12-18T06:15:17;101379.84;;;-4.95;86.68
30598;BME280;17365;48.878;8.334;2022-12-18T06:17:42;101391.06;;;-5.12;87.17
30598;BME280;17365;48.878;8.334;2022-12-18T06:20:08;101398.44;;;-5.05;87.61
30598;BME280;17365;48.878;8.334;2022-12-18T06:22:33;101399.34;;;-4.84;86.64
30598;BME280;17365;48.878;8.334;2022-12-18T06:25:00;101400.06;;;-5.06;87.72
30598;BME280;17365;48.878;8.334;2022-12-18T06:27:25;101411.97;;;-5.44;88.48
30598;BME280;17365;48.878;8.334;2022-12-18T06:29:50;101417.72;;;-5.26;88.63
30598;BME280;17365;48.878;8.334;2022-12-18T06:32:15;101414.63;;;-5.03;88.22
30598;BME280;17365;48.878;8.334;2022-12-18T06:34:41;101414.59;;;-5.52;88.65
30598;BME280;17365;48.878;8.334;2022-12-18T06:37:07;101415.56;;;-5.21;89.16
30598;BME280;17365;48.878;8.334;2022-12-18T06:39:32;101415.31;;;-5.24;88.28
30598;BME280;17365;48.878;8.334;2022-12-18T06:41:57;101422.75;;;-5.36;87.46
30598;BME280;17365;48.878;8.334;2022-12-18T06:44:22;101425.53;;;-5.43;87.96
30598;BME280;17365;48.878;8.334;2022-12-18T06:46:48;101422.53;;;-5.29;89.32
30598;BME280;17365;48.878;8.334;2022-12-18T06:49:13;101429.44;;;-4.87;87.91
30598;BME280;17365;48.878;8.334;2022-12-18T06:51:41;101430.97;;;-5.39;88.99
30598;BME280;17365;48.878;8.334;2022-12-18T06:54:06;101428.69;;;-4.96;88.59
30598;BME280;17365;48.878;8.334;2022-12-18T06:56:31;101422.97;;;-4.94;89.02
30598;BME280;17365;48.878;8.334;2022-12-18T06:58:57;101423.00;;;-4.74;87.95
30598;BME280;17365;48.878;8.334;2022-12-18T07:01:22;101433.25;;;-4.82;86.64
30598;BME280;17365;48.878;8.334;2022-12-18T07:03:52;101434.34;;;-4.99;87.71
30598;BME280;17365;48.878;8.334;2022-12-18T07:06:20;101427.94;;;-4.85;87.28
30598;BME280;17365;48.878;8.334;2022-12-18T07:08:46;101425.53;;;-4.74;87.38
30598;BME280;17365;48.878;8.334;2022-12-18T07:11:12;101420.97;;;-4.57;86.46
30598;BME280;17365;48.878;8.334;2022-12-18T07:13:38;101420.97;;;-4.57;86.23
30598;BME280;17365;48.878;8.334;2022-12-18T07:16:08;101432.63;;;-4.49;85.96
30598;BME280;17365;48.878;8.334;2022-12-18T07:18:34;101444.63;;;-5.66;88.18
30598;BME280;17365;48.878;8.334;2022-12-18T07:21:08;101433.59;;;-5.08;87.82
30598;BME280;17365;48.878;8.334;2022-12-18T07:23:34;101433.31;;;-5.11;88.08
30598;BME280;17365;48.878;8.334;2022-12-18T07:26:08;101425.13;;;-5.09;87.11
30598;BME280;17365;48.878;8.334;2022-12-18T07:28:34;101433.66;;;-5.27;87.86
30598;BME280;17365;48.878;8.334;2022-12-18T07:31:08;101436.28;;;-5.36;89.00
30598;BME280;17365;48.878;8.334;2022-12-18T07:33:33;101439.59;;;-6.32;91.62
30598;BME280;17365;48.878;8.334;2022-12-18T07:36:00;101442.97;;;-6.13;91.62
30598;BME280;17365;48.878;8.334;2022-12-18T07:38:25;101450.06;;;-6.47;93.30
30598;BME280;17365;48.878;8.334;2022-12-18T07:40:50;101449.00;;;-6.21;94.29
30598;BME280;17365;48.878;8.334;2022-12-18T07:43:16;101456.91;;;-6.73;94.66
30598;BME280;17365;48.878;8.334;2022-12-18T07:45:42;101451.09;;;-6.44;94.65
30598;BME280;17365;48.878;8.334;2022-12-18T07:48:07;101456.16;;;-6.44;94.40
30598;BME280;17365;48.878;8.334;2022-12-18T07:50:32;101462.25;;;-6.05;94.52
30598;BME280;17365;48.878;8.334;2022-12-18T07:52:58;101464.84;;;-6.32;93.46
30598;BME280;17365;48.878;8.334;2022-12-18T07:55:23;101470.88;;;-6.49;95.02
30598;BME280;17365;48.878;8.334;2022-12-18T07:57:48;101476.56;;;-6.60;95.19
30598;BME280;17365;48.878;8.334;2022-12-18T08:00:14;101473.03;;;-6.16;94.20
30598;BME280;17365;48.878;8.334;2022-12-18T08:02:39;101481.63;;;-5.95;93.11
30598;BME280;17365;48.878;8.334;2022-12-18T08:05:05;101478.63;;;-5.33;91.16
30598;BME280;17365;48.878;8.334;2022-12-18T08:07:30;101489.28;;;-5.56;89.48
30598;BME280;17365;48.878;8.334;2022-12-18T08:09:55;101482.00;;;-5.14;88.21
30598;BME280;17365;48.878;8.334;2022-12-18T08:12:20;101482.44;;;-5.57;89.07
30598;BME280;17365;48.878;8.334;2022-12-18T08:14:46;101482.50;;;-5.47;89.12
30598;BME280;17365;48.878;8.334;2022-12-18T08:17:11;101481.53;;;-5.39;88.36
30598;BME280;17365;48.878;8.334;2022-12-18T08:19:36;101488.19;;;-5.68;90.00
30598;BME280;17365;48.878;8.334;2022-12-18T08:22:02;101495.09;;;-5.28;88.17
30598;BME280;17365;48.878;8.334;2022-12-18T08:24:27;101499.16;;;-4.91;87.08
30598;BME280;17365;48.878;8.334;2022-12-18T08:26:53;101485.66;;;-5.10;87.10
30598;BME280;17365;48.878;8.334;2022-12-18T08:29:18;101473.25;;;-4.68;87.06
30598;BME280;17365;48.878;8.334;2022-12-18T08:31:43;101464.00;;;-4.68;85.03
30598;BME280;17365;48.878;8.334;2022-12-18T08:34:09;101466.31;;;-5.20;86.03
30598;BME280;17365;48.878;8.334;2022-12-18T08:36:34;101465.63;;;-5.86;89.57
30598;BME280;17365;48.878;8.334;2022-12-18T08:38:59;101467.91;;;-5.78;89.41
30598;BME280;17365;48.878;8.334;2022-12-18T08:41:25;101455.44;;;-5.77;89.73
30598;BME280;17365;48.878;8.334;2022-12-18T08:43:50;101452.44;;;-5.73;89.90
30598;BME280;17365;48.878;8.334;2022-12-18T08:46:39;101448.91;;;-5.36;90.19
30598;BME280;17365;48.878;8.334;2022-12-18T08:49:05;101448.00;;;-5.46;90.08
30598;BME280;17365;48.878;8.334;2022-12-18T08:51:31;101436.41;;;-4.95;87.10
30598;BME280;17365;48.878;8.334;2022-12-18T08:53:57;101428.94;;;-4.83;87.13
30598;BME280;17365;48.878;8.334;2022-12-18T08:56:22;101419.44;;;-4.76;85.83
30598;BME280;17365;48.878;8.334;2022-12-18T08:58:51;101422.09;;;-4.13;84.10
30598;BME280;17365;48.878;8.334;2022-12-18T09:01:16;101425.75;;;-5.01;83.68
30598;BME280;17365;48.878;8.334;2022-12-18T09:03:42;101428.34;;;-5.88;88.59
30598;BME280;17365;48.878;8.334;2022-12-18T09:06:07;101436.31;;;-5.65;88.30
30598;BME280;17365;48.878;8.334;2022-12-18T09:08:33;101423.72;;;-5.05;87.49
30598;BME280;17365;48.878;8.334;2022-12-18T09:10:58;101421.53;;;-5.11;88.87
30598;BME280;17365;48.878;8.334;2022-12-18T09:13:24;101437.44;;;-5.32;88.93
30598;BME280;17365;48.878;8.334;2022-12-18T09:15:51;101444.31;;;-5.50;88.73
30598;BME280;17365;48.878;8.334;2022-12-18T09:18:18;101435.72;;;-5.03;89.42
30598;BME280;17365;48.878;8.334;2022-12-18T09:20:44;101441.66;;;-5.12;86.85
30598;BME280;17365;48.878;8.334;2022-12-18T09:23:10;101444.81;;;-5.15;88.55
30598;BME280;17365;48.878;8.334;2022-12-18T09:25:36;101445.78;;;-4.43;86.77
30598;BME280;17365;48.878;8.334;2022-12-18T09:28:04;101443.78;;;-4.37;84.86
30598;BME280;17365;48.878;8.334;2022-12-18T09:30:30;101452.50;;;-4.54;85.89
30598;BME280;17365;48.878;8.334;2022-12-18T09:32:58;101463.97;;;-4.88;86.23
30598;BME280;17365;48.878;8.334;2022-12-18T09:35:23;101469.81;;;-5.28;89.48
30598;BME280;17365;48.878;8.334;2022-12-18T09:37:48;101482.94;;;-4.93;88.65
30598;BME280;17365;48.878;8.334;2022-12-18T09:40:16;101487.69;;;-5.16;89.03
30598;BME280;17365;48.878;8.334;2022-12-18T09:42:45;101488.34;;;-5.38;89.68
30598;BME280;17365;48.878;8.334;2022-12-18T09:45:13;101482.13;;;-4.73;88.77
30598;BME280;17365;48.878;8.334;2022-12-18T09:47:41;101476.63;;;-4.98;87.56
30598;BME280;17365;48.878;8.334;2022-12-18T09:50:28;101481.78;;;-5.36;90.83
30598;BME280;17365;48.878;8.334;2022-12-18T09:52:58;101486.50;;;-4.91;89.44
30598;BME280;17365;48.878;8.334;2022-12-18T09:55:32;101488.66;;;-5.24;89.26
30598;BME280;17365;48.878;8.334;2022-12-18T09:58:05;101500.88;;;-5.39;91.08
30598;BME280;17365;48.878;8.334;2022-12-18T10:00:32;101501.13;;;-5.36;91.42
30598;BME280;17365;48.878;8.334;2022-12-18T10:03:10;101514.19;;;-5.32;91.93
30598;BME280;17365;48.878;8.334;2022-12-18T10:05:42;101508.22;;;-5.03;89.92
30598;BME280;17365;48.878;8.334;2022-12-18T10:10:51;101511.94;;;-5.47;92.69
30598;BME280;17365;48.878;8.334;2022-12-18T10:13:26;101514.97;;;-5.51;91.84
30598;BME280;17365;48.878;8.334;2022-12-18T10:19:20;101504.31;;;-5.00;90.26
30598;BME280;17365;48.878;8.334;2022-12-18T10:21:30;101499.28;;;-5.29;91.42
30598;BME280;17365;48.878;8.334;2022-12-18T10:24:14;101484.13;;;-4.79;90.14
30598;BME280;17365;48.878;8.334;2022-12-18T10:26:42;101481.25;;;-4.13;86.82
30598;BME280;17365;48.878;8.334;2022-12-18T10:29:13;101469.41;;;-3.71;85.24
30598;BME280;17365;48.878;8.334;2022-12-18T10:31:38;101467.50;;;-5.06;87.29
30598;BME280;17365;48.878;8.334;2022-12-18T10:34:07;101470.38;;;-4.62;88.47
30598;BME280;17365;48.878;8.334;2022-12-18T10:36:34;101469.50;;;-4.53;88.07
30598;BME280;17365;48.878;8.334;2022-12-18T10:39:35;101459.44;;;-4.11;85.58
30598;BME280;17365;48.878;8.334;2022-12-18T10:42:14;101465.81;;;-4.46;85.26
30598;BME280;17365;48.878;8.334;2022-12-18T10:44:41;101471.03;;;-5.04;87.09
30598;BME280;17365;48.878;8.334;2022-12-18T10:47:12;101467.69;;;-3.93;85.83
30598;BME280;17365;48.878;8.334;2022-12-18T10:49:45;101476.16;;;-4.74;85.44
30598;BME280;17365;48.878;8.334;2022-12-18T10:52:22;101466.34;;;-3.67;84.84
30598;BME280;17365;48.878;8.334;2022-12-18T10:54:51;101460.53;;;-3.34;82.55
30598;BME280;17365;48.878;8.334;2022-12-18T10:57:29;101447.75;;;-3.46;81.85
30598;BME280;17365;48.878;8.334;2022-12-18T10:59:57;101453.75;;;-3.56;83.37
30598;BME280;17365;48.878;8.334;2022-12-18T11:02:37;101451.19;;;-3.45;82.16
30598;BME280;17365;48.878;8.334;2022-12-18T11:05:23;101459.25;;;-2.85;80.41
30598;BME280;17365;48.878;8.334;2022-12-18T11:07:50;101468.63;;;-3.28;80.63
30598;BME280;17365;48.878;8.334;2022-12-18T11:10:21;101465.63;;;-3.44;81.70
30598;BME280;17365;48.878;8.334;2022-12-18T11:12:47;101462.66;;;-3.61;83.49
30598;BME280;17365;48.878;8.334;2022-12-18T11:15:29;101469.03;;;-3.76;82.72
30598;BME280;17365;48.878;8.334;2022-12-18T11:17:55;101465.41;;;-4.00;83.51
30598;BME280;17365;48.878;8.334;2022-12-18T11:20:34;101458.41;;;-3.18;81.88
30598;BME280;17365;48.878;8.334;2022-12-18T11:23:02;101463.91;;;-4.38;84.05
30598;BME280;17365;48.878;8.334;2022-12-18T11:25:30;101461.03;;;-3.70;85.44
30598;BME280;17365;48.878;8.334;2022-12-18T11:28:05;101463.59;;;-3.81;84.31
30598;BME280;17365;48.878;8.334;2022-12-18T11:30:54;101472.97;;;-3.37;82.44
30598;BME280;17365;48.878;8.334;2022-12-18T11:33:35;101466.47;;;-3.02;81.34
30598;BME280;17365;48.878;8.334;2022-12-18T11:36:03;101454.47;;;-2.71;79.80
30598;BME280;17365;48.878;8.334;2022-12-18T11:38:32;101462.25;;;-4.48;82.40
30598;BME280;17365;48.878;8.334;2022-12-18T11:41:20;101450.88;;;-4.63;84.37
30598;BME280;17365;48.878;8.334;2022-12-18T11:46:19;101439.97;;;-3.59;82.51
30598;BME280;17365;48.878;8.334;2022-12-18T11:51:35;101434.63;;;-3.30;82.64
30598;BME280;17365;48.878;8.334;2022-12-18T11:54:14;101424.09;;;-3.03;79.97
30598;BME280;17365;48.878;8.334;2022-12-18T11:59:46;101422.59;;;-3.65;83.49
30598;BME280;17365;48.878;8.334;2022-12-18T12:05:25;101412.09;;;-2.94;80.57
30598;BME280;17365;48.878;8.334;2022-12-18T12:13:26;101391.19;;;-3.01;79.27
30598;BME280;17365;48.878;8.334;2022-12-18T12:23:54;101407.19;;;-3.46;81.40
30598;BME280;17365;48.878;8.334;2022-12-18T12:27:26;101409.94;;;-4.17;86.26
30598;BME280;17365;48.878;8.334;2022-12-18T12:32:16;101415.66;;;-3.45;82.43
30598;BME280;17365;48.878;8.334;2022-12-18T12:35:11;101414.31;;;-3.08;81.51
30598;BME280;17365;48.878;8.334;2022-12-18T12:40:17;101422.94;;;-3.92;82.62
30598;BME280;17365;48.878;8.334;2022-12-18T12:42:52;101414.72;;;-3.58;83.92
30598;BME280;17365;48.878;8.334;2022-12-18T12:46:04;101413.09;;;-3.35;83.50
30598;BME280;17365;48.878;8.334;2022-12-18T12:48:38;101403.66;;;-3.04;81.62
30598;BME280;17365;48.878;8.334;2022-12-18T12:51:12;101408.84;;;-2.81;81.60
30598;BME280;17365;48.878;8.334;2022-12-18T12:53:39;101411.63;;;-3.22;80.71
30598;BME280;17365;48.878;8.334;2022-12-18T12:56:07;101401.34;;;-3.01;80.69
30598;BME280;17365;48.878;8.334;2022-12-18T13:04:12;101391.19;;;-3.23;82.65
30598;BME280;17365;48.878;8.334;2022-12-18T13:06:42;101381.91;;;-3.66;84.07
30598;BME280;17365;48.878;8.334;2022-12-18T13:09:11;101372.00;;;-3.41;83.96
30598;BME280;17365;48.878;8.334;2022-12-18T13:11:41;101365.53;;;-3.16;82.81
30598;BME280;17365;48.878;8.334;2022-12-18T13:14:40;101368.09;;;-3.16;81.68
30598;BME280;17365;48.878;8.334;2022-12-18T13:20:04;101350.84;;;-3.42;84.32
30598;BME280;17365;48.878;8.334;2022-12-18T13:22:38;101345.38;;;-3.90;84.72
30598;BME280;17365;48.878;8.334;2022-12-18T13:25:32;101345.94;;;-3.29;84.56
30598;BME280;17365;48.878;8.334;2022-12-18T13:39:53;101325.38;;;-4.40;88.19
30598;BME280;17365;48.878;8.334;2022-12-18T13:44:58;101319.88;;;-3.60;84.30
30598;BME280;17365;48.878;8.334;2022-12-18T13:47:34;101319.22;;;-3.13;83.35
30598;BME280;17365;48.878;8.334;2022-12-18T13:50:12;101322.16;;;-3.19;82.70
30598;BME280;17365;48.878;8.334;2022-12-18T13:52:45;101323.56;;;-2.89;82.09
30598;BME280;17365;48.878;8.334;2022-12-18T13:55:16;101319.78;;;-3.06;82.40
30598;BME280;17365;48.878;8.334;2022-12-18T13:57:43;101315.47;;;-3.07;82.42
30598;BME280;17365;48.878;8.334;2022-12-18T14:00:30;101313.69;;;-3.08;82.63
30598;BME280;17365;48.878;8.334;2022-12-18T14:02:57;101323.25;;;-3.27;83.97
30598;BME280;17365;48.878;8.334;2022-12-18T14:05:24;101316.22;;;-3.08;83.55
30598;BME280;17365;48.878;8.334;2022-12-18T14:07:50;101317.16;;;-2.96;82.37
30598;BME280;17365;48.878;8.334;2022-12-18T14:10:16;101310.22;;;-2.86;82.80
30598;BME280;17365;48.878;8.334;2022-12-18T14:12:47;101316.00;;;-3.11;82.75
30598;BME280;17365;48.878;8.334;2022-12-18T14:15:33;101323.69;;;-3.21;83.03
30598;BME280;17365;48.878;8.334;2022-12-18T14:20:57;101315.97;;;-2.89;83.59
30598;BME280;17365;48.878;8.334;2022-12-18T14:23:36;101328.03;;;-2.63;81.99